Time;durP1;ratioP1;P1;durP2;ratioP2;P2;SDS_P1;SDS_P2;PMS_P1;PMS_P2;Temp;Humidity;BMP_temperature;BMP_pressure;BME280_temperature;BME280_humidity;BME280_pressure;Samples;Min_cycle;Max_cycle;Signal;HPM_P1;HPM_P2
2022/10/03 04:00:02;;;;;;;6.85;3.40;;;;;;;14.10;77.34;100548.03;5606768;31;76635;-55
2022/10/03 04:03:27;;;;;;;9.50;3.78;;;;;;;14.10;77.34;100548.03;5549159;31;34800;-55
2022/10/03 04:06:45;;;;;;;5.68;3.12;;;;;;;13.57;77.70;100558.41;5583620;31;34124;-55
2022/10/03 04:09:58;;;;;;;7.12;2.92;;;;;;;13.57;77.91;100561.88;5583437;31;34263;-56
2022/10/03 04:13:06;;;;;;;6.18;2.97;;;;;;;13.66;77.57;100553.16;5597855;31;34271;-56
2022/10/03 04:20:11;;;;;;;4.30;2.78;;;;;;;13.64;76.70;100553.44;5603270;31;33553;-55
2022/10/03 04:23:32;;;;;;;7.35;3.15;;;;;;;13.60;77.34;100555.91;5603605;31;33901;-56
2022/10/03 04:27:02;;;;;;;4.68;2.90;;;;;;;13.72;77.20;100563.53;5603313;31;33616;-56
2022/10/03 04:30:23;;;;;;;3.87;2.75;;;;;;;13.72;76.84;100558.16;5583784;31;34262;-55
2022/10/03 04:33:26;;;;;;;5.90;3.20;;;;;;;13.72;77.21;100568.13;5583704;31;33677;-55
2022/10/03 04:36:45;;;;;;;4.57;2.87;;;;;;;13.60;76.83;100571.28;5583185;32;34959;-56
2022/10/03 04:40:21;;;;;;;6.32;2.60;;;;;;;13.63;77.54;100570.69;5583660;31;34314;-55
2022/10/03 04:43:51;;;;;;;6.20;2.70;;;;;;;13.70;77.82;100567.62;5583436;32;34274;-55
2022/10/03 04:47:05;;;;;;;8.88;3.40;;;;;;;13.67;77.60;100573.59;5583286;31;33647;-55
2022/10/03 04:50:10;;;;;;;6.20;2.80;;;;;;;13.58;76.67;100570.78;5582406;32;33838;-57
2022/10/03 04:53:39;;;;;;;4.82;3.10;;;;;;;13.66;76.61;100574.69;5568591;31;34095;-55
2022/10/03 04:57:33;;;;;;;7.20;2.90;;;;;;;13.61;76.82;100576.37;5573429;31;33723;-55
2022/10/03 05:00:57;;;;;;;7.32;3.33;;;;;;;13.57;77.18;100577.25;5533499;32;33300;-55
2022/10/03 05:04:27;;;;;;;6.35;3.05;;;;;;;13.53;77.66;100585.13;5574582;32;33662;-55
2022/10/03 05:07:54;;;;;;;5.70;3.10;;;;;;;13.51;77.65;100587.34;5577278;31;34472;-55
2022/10/03 05:11:11;;;;;;;6.07;2.90;;;;;;;13.45;77.42;100609.25;5565385;32;33597;-53
2022/10/03 05:14:27;;;;;;;5.65;3.00;;;;;;;13.38;77.61;100609.63;5568038;32;34329;-54
2022/10/03 05:17:54;;;;;;;4.18;2.72;;;;;;;13.36;78.01;100609.09;5569512;32;33739;-53
2022/10/03 05:21:08;;;;;;;6.35;2.92;;;;;;;13.45;77.57;100606.56;5566158;32;33853;-53
2022/10/03 05:24:30;;;;;;;5.85;2.83;;;;;;;13.48;77.56;100614.84;5569435;32;34068;-53
2022/10/03 05:27:50;;;;;;;5.12;2.97;;;;;;;13.44;76.87;100613.03;5568066;32;34367;-53
2022/10/03 05:31:03;;;;;;;6.62;2.70;;;;;;;13.48;77.35;100631.00;5569346;32;34274;-53
2022/10/03 05:34:32;;;;;;;6.30;3.08;;;;;;;13.45;77.47;100631.59;5567539;32;34376;-53
2022/10/03 05:37:49;;;;;;;4.85;2.70;;;;;;;13.46;76.46;100627.00;5567140;32;34295;-54
2022/10/03 05:41:03;;;;;;;4.00;2.97;;;;;;;13.40;76.56;100634.34;5568100;32;34121;-53
2022/10/03 05:44:16;;;;;;;6.28;2.92;;;;;;;13.43;76.86;100625.69;5559919;32;33682;-53
2022/10/03 05:47:43;;;;;;;6.10;2.95;;;;;;;13.47;75.91;100632.09;5566964;32;33687;-53
2022/10/03 05:50:56;;;;;;;5.95;2.72;;;;;;;13.47;76.55;100620.53;5568455;32;34290;-53
2022/10/03 05:54:39;;;;;;;8.18;2.72;;;;;;;13.53;76.32;100627.44;5567591;32;34313;-53
2022/10/03 05:58:25;;;;;;;4.87;2.50;;;;;;;13.52;75.08;100631.22;5564135;32;34437;-53
2022/10/03 06:01:46;;;;;;;9.43;3.30;;;;;;;13.50;74.96;100625.31;5566884;32;33576;-53
2022/10/03 06:05:11;;;;;;;6.87;2.67;;;;;;;13.55;74.64;100636.03;5567149;32;34273;-52
2022/10/03 06:08:42;;;;;;;7.05;2.42;;;;;;;13.56;74.54;100640.31;5567325;32;33677;-54
2022/10/03 06:12:09;;;;;;;4.72;2.42;;;;;;;13.57;73.94;100647.28;5568540;32;33889;-53
2022/10/03 06:15:43;;;;;;;8.77;2.40;;;;;;;13.67;73.72;100654.41;5568372;32;33599;-53
2022/10/03 06:19:23;;;;;;;7.27;2.30;;;;;;;13.61;74.30;100649.12;5568092;32;33669;-53
2022/10/03 06:22:46;;;;;;;7.25;2.40;;;;;;;13.78;72.83;100663.94;5567158;32;33593;-53
2022/10/03 06:25:54;;;;;;;8.18;2.65;;;;;;;13.74;72.51;100657.53;5568506;32;33702;-53
2022/10/03 06:29:27;;;;;;;5.53;2.50;;;;;;;13.82;72.09;100668.44;5566874;32;33918;-53
2022/10/03 06:32:48;;;;;;;5.05;2.20;;;;;;;13.85;71.94;100657.06;5555639;32;33597;-53
2022/10/03 06:36:05;;;;;;;9.07;2.30;;;;;;;13.94;72.08;100667.16;5569164;32;33989;-54
2022/10/03 06:40:02;;;;;;;3.90;2.47;;;;;;;13.96;71.26;100675.78;5566273;32;33651;-54
2022/10/03 06:43:23;;;;;;;9.18;2.45;;;;;;;14.01;70.59;100679.19;5501961;32;34245;-53
2022/10/03 06:46:46;;;;;;;5.70;2.30;;;;;;;14.06;70.86;100684.47;5548734;32;33905;-53
2022/10/03 06:50:04;;;;;;;7.82;2.35;;;;;;;14.06;70.49;100689.88;5554909;32;33631;-54
2022/10/03 06:53:18;;;;;;;7.62;2.40;;;;;;;13.97;71.49;100685.44;5560825;32;34269;-53
2022/10/03 06:56:37;;;;;;;8.32;2.30;;;;;;;13.98;70.26;100690.56;5564836;32;33959;-53
2022/10/03 06:59:50;;;;;;;12.65;2.35;;;;;;;14.00;69.90;100682.16;5561123;32;33302;-53
2022/10/03 07:03:37;;;;;;;39.25;3.95;;;;;;;13.99;69.80;100681.37;5566683;32;33430;-54
2022/10/03 07:06:42;;;;;;;4.15;2.10;;;;;;;14.08;69.70;100690.38;5554034;31;34295;-53
2022/10/03 07:10:19;;;;;;;7.25;2.42;;;;;;;14.01;69.56;100689.19;5565817;32;33743;-54
2022/10/03 07:13:59;;;;;;;10.27;2.22;;;;;;;14.15;68.85;100694.59;5547943;32;33877;-53
2022/10/03 07:17:04;;;;;;;9.75;2.30;;;;;;;14.25;69.54;100695.22;5566245;32;32978;-53
2022/10/03 07:20:14;;;;;;;4.82;1.90;;;;;;;14.30;68.37;100702.41;5566734;32;33742;-54
2022/10/03 07:23:45;;;;;;;6.55;2.20;;;;;;;14.44;69.39;100700.53;5566000;32;34074;-53
2022/10/03 07:26:50;;;;;;;10.45;2.47;;;;;;;14.53;66.90;100698.75;5560688;32;33606;-53
2022/10/03 07:30:02;;;;;;;7.07;1.85;;;;;;;14.66;66.70;100697.19;5566671;32;33601;-53
2022/10/03 07:33:42;;;;;;;15.18;2.50;;;;;;;14.75;66.63;100694.59;5556683;32;33803;-53
2022/10/03 07:40:17;;;;;;;6.57;1.77;;;;;;;14.79;64.04;100711.78;5566658;32;33773;-53
2022/10/03 07:43:25;;;;;;;31.67;3.70;;;;;;;14.67;65.78;100714.97;5566419;32;33100;-53
2022/10/03 07:47:03;;;;;;;7.87;2.40;;;;;;;14.68;64.62;100710.38;5567365;32;33667;-54
2022/10/03 07:50:40;;;;;;;4.82;1.85;;;;;;;14.70;64.92;100711.69;5532441;31;33586;-53
2022/10/03 07:54:19;;;;;;;9.60;1.95;;;;;;;14.76;67.07;100704.28;5535519;32;33277;-53
2022/10/03 07:57:36;;;;;;;25.02;2.40;;;;;;;14.67;64.22;100731.19;5564859;32;33704;-54
2022/10/03 08:00:53;;;;;;;324.92;20.83;;;;;;;14.60;64.01;100719.94;5563853;32;33203;-54
2022/10/03 08:04:25;;;;;;;15.05;2.30;;;;;;;14.60;65.19;100719.16;5567183;32;33677;-53
2022/10/03 08:08:08;;;;;;;221.07;13.10;;;;;;;14.60;64.83;100713.75;5542065;31;33646;-54
2022/10/03 08:11:44;;;;;;;7.07;3.10;;;;;;;14.55;63.97;100704.66;5562983;32;33747;-53
2022/10/03 08:14:56;;;;;;;6.53;1.95;;;;;;;14.62;64.09;100704.28;5566501;32;33970;-53
2022/10/03 08:18:24;;;;;;;6.43;2.00;;;;;;;14.78;63.76;100705.56;5566919;32;33687;-53
2022/10/03 08:22:00;;;;;;;6.32;1.80;;;;;;;14.93;63.51;100696.41;5566822;32;33811;-53
2022/10/03 08:25:15;;;;;;;5.05;1.95;;;;;;;14.90;63.19;100697.00;5565180;32;33557;-53
2022/10/03 08:28:37;;;;;;;6.90;1.95;;;;;;;14.89;63.23;100689.19;5562787;32;34329;-53
2022/10/03 08:31:58;;;;;;;9.57;2.30;;;;;;;15.00;61.45;100669.78;5561740;32;33777;-53
2022/10/03 08:35:17;;;;;;;6.93;2.05;;;;;;;14.98;62.41;100690.87;5564874;32;33742;-53
2022/10/03 08:38:22;;;;;;;10.18;2.25;;;;;;;15.13;64.03;100694.34;5560801;32;33305;-54
2022/10/03 08:42:07;;;;;;;8.07;2.20;;;;;;;15.17;61.34;100698.06;5561119;32;33577;-53
2022/10/03 08:45:38;;;;;;;156.32;9.38;;;;;;;15.25;60.68;100694.63;5559451;32;33768;-53
2022/10/03 08:49:17;;;;;;;6.87;1.83;;;;;;;15.34;60.03;100719.81;5560281;32;33902;-53
2022/10/03 08:52:42;;;;;;;12.37;2.30;;;;;;;15.31;59.73;100706.12;5565829;32;33583;-53
2022/10/03 08:55:50;;;;;;;8.70;2.47;;;;;;;15.34;58.98;100721.72;5566541;32;34420;-53
2022/10/03 08:59:29;;;;;;;21.15;2.60;;;;;;;15.22;59.09;100714.13;5564571;32;33324;-54
2022/10/03 09:02:58;;;;;;;25.02;2.17;;;;;;;15.31;58.37;100696.12;5563754;32;33632;-53
2022/10/03 09:06:57;;;;;;;7.55;2.17;;;;;;;15.40;58.49;100712.41;5559624;32;34374;-53
2022/10/03 09:10:27;;;;;;;74.65;5.53;;;;;;;15.37;59.92;100704.91;5558486;32;33142;-54
2022/10/03 09:13:59;;;;;;;6.93;1.80;;;;;;;15.51;58.08;100703.75;5559691;32;34299;-53
2022/10/03 09:17:34;;;;;;;3.08;1.60;;;;;;;15.72;58.40;100708.72;5565744;32;33761;-53
2022/10/03 09:20:54;;;;;;;6.70;2.00;;;;;;;15.65;56.92;100701.00;5562268;32;33888;-53
2022/10/03 09:24:25;;;;;;;7.35;2.10;;;;;;;15.64;56.46;100694.00;5562517;32;33519;-53
2022/10/03 09:27:38;;;;;;;62.65;4.60;;;;;;;15.61;56.29;100697.31;5565909;32;33547;-54
2022/10/03 09:30:49;;;;;;;9.35;1.70;;;;;;;15.65;56.24;100708.31;5561776;32;34940;-53
2022/10/03 09:33:59;;;;;;;67.82;4.40;;;;;;;15.73;56.86;100707.63;5559112;32;34458;-53
2022/10/03 09:37:46;;;;;;;12.85;1.90;;;;;;;15.92;56.05;100719.03;5566406;32;34264;-53
2022/10/03 09:40:57;;;;;;;7.72;1.90;;;;;;;15.96;56.05;100684.09;5556911;32;33652;-53
2022/10/03 09:44:21;;;;;;;8.10;1.95;;;;;;;16.01;57.15;100704.78;5566301;32;33695;-53
2022/10/03 09:47:29;;;;;;;31.83;4.00;;;;;;;16.07;56.81;100696.25;5568286;32;33777;-54
2022/10/03 09:50:58;;;;;;;66.50;4.55;;;;;;;15.98;55.32;100707.00;5565678;32;33620;-53
2022/10/03 09:54:24;;;;;;;10.38;2.17;;;;;;;15.88;56.03;100709.94;5563465;32;33321;-53
2022/10/03 09:57:50;;;;;;;9.18;1.67;;;;;;;15.91;56.10;100705.84;5562742;32;34319;-54
2022/10/03 10:01:10;;;;;;;6.78;2.22;;;;;;;15.92;55.75;100708.22;5559914;32;33319;-54
2022/10/03 10:04:50;;;;;;;4.78;1.70;;;;;;;15.93;57.55;100704.44;5567673;32;33770;-53
2022/10/03 10:08:07;;;;;;;5.75;1.75;;;;;;;15.87;55.87;100694.84;5565163;32;33667;-54
2022/10/03 10:11:34;;;;;;;4.82;1.35;;;;;;;15.91;56.37;100712.03;5561106;32;33765;-54
2022/10/03 10:15:05;;;;;;;3.33;1.50;;;;;;;16.06;56.76;100710.06;5566956;32;33340;-53
2022/10/03 10:18:32;;;;;;;6.22;1.73;;;;;;;16.16;56.11;100720.66;5558732;32;33657;-53
2022/10/03 10:21:53;;;;;;;3.10;1.30;;;;;;;16.27;54.69;100711.16;5567190;32;34235;-53
2022/10/03 10:25:24;;;;;;;4.78;1.60;;;;;;;16.28;54.87;100715.44;5565748;32;33868;-54
2022/10/03 10:28:39;;;;;;;50.88;3.62;;;;;;;16.05;55.70;100705.78;5564128;32;33849;-54
2022/10/03 10:32:00;;;;;;;4.65;1.60;;;;;;;16.13;55.87;100713.16;5565789;32;33903;-54
2022/10/03 10:35:02;;;;;;;13.30;1.70;;;;;;;15.90;57.50;100712.38;5565501;32;34492;-53
2022/10/03 10:38:24;;;;;;;6.00;1.50;;;;;;;15.98;55.82;100712.41;5565150;32;33767;-53
2022/10/03 10:41:55;;;;;;;3.97;1.37;;;;;;;16.05;55.00;100720.09;5551589;32;33609;-56
2022/10/03 10:45:25;;;;;;;11.57;1.87;;;;;;;16.12;55.53;100708.84;5565865;32;33879;-53
2022/10/03 10:49:04;;;;;;;13.60;2.10;;;;;;;16.23;55.42;100707.47;5561572;32;33675;-53
2022/10/03 10:52:20;;;;;;;14.00;1.83;;;;;;;16.07;56.13;100707.06;5553821;32;35273;-54
2022/10/03 10:55:24;;;;;;;2.05;1.15;;;;;;;16.11;55.88;100729.69;5554331;32;33279;-53
2022/10/03 10:59:04;;;;;;;4.12;1.60;;;;;;;15.90;55.21;100718.56;5560453;32;33680;-54
2022/10/03 11:02:09;;;;;;;4.72;1.55;;;;;;;15.96;56.66;100717.34;5556589;32;33397;-53
2022/10/03 11:06:08;;;;;;;8.65;2.05;;;;;;;15.99;55.74;100721.31;5563763;32;33757;-53
2022/10/03 11:09:40;;;;;;;5.72;1.40;;;;;;;15.88;56.10;100707.25;5483993;32;34274;-54
2022/10/03 11:13:40;;;;;;;3.87;1.40;;;;;;;15.88;57.38;100728.87;5504370;31;34243;-53
2022/10/03 11:17:22;;;;;;;8.05;1.87;;;;;;;15.85;56.95;100726.00;5561527;32;33805;-53
2022/10/03 11:20:57;;;;;;;3.33;1.55;;;;;;;15.74;59.02;100718.13;5560595;32;33227;-53
2022/10/03 11:24:24;;;;;;;5.87;1.52;;;;;;;15.87;58.05;100727.28;5541202;32;35465;-53
2022/10/03 11:27:56;;;;;;;5.00;1.48;;;;;;;15.93;57.26;100720.66;5559930;32;34353;-53
2022/10/03 11:31:36;;;;;;;4.82;1.77;;;;;;;15.88;57.57;100714.56;5568777;32;33730;-55
2022/10/03 11:35:00;;;;;;;6.87;2.08;;;;;;;15.94;59.85;100718.75;5565657;32;33628;-54
2022/10/03 11:38:23;;;;;;;3.05;1.30;;;;;;;15.96;60.13;100719.25;5561546;32;33717;-54
2022/10/03 11:42:04;;;;;;;2.72;1.20;;;;;;;15.98;59.29;100712.41;5568296;32;34346;-54
2022/10/03 11:45:41;;;;;;;3.15;1.30;;;;;;;15.96;59.48;100711.94;5567315;32;32144;-54
2022/10/03 11:49:19;;;;;;;3.20;1.40;;;;;;;15.96;58.18;100728.16;5565495;32;34707;-54
2022/10/03 11:52:53;;;;;;;4.78;1.30;;;;;;;16.04;58.22;100718.50;5557548;31;33631;-54
2022/10/03 11:56:06;;;;;;;3.58;1.30;;;;;;;16.14;57.25;100714.75;5559803;32;34492;-54
2022/10/03 11:59:33;;;;;;;3.22;1.30;;;;;;;16.10;57.04;100716.47;5556480;32;33696;-54
2022/10/03 12:02:46;;;;;;;4.03;1.20;;;;;;;16.12;56.56;100714.25;5556873;32;34567;-54
2022/10/03 12:09:28;;;;;;;15.65;1.73;;;;;;;16.14;56.90;100712.84;5567241;32;34394;-54
2022/10/03 12:12:42;;;;;;;93.68;4.78;;;;;;;16.02;56.44;100709.09;5559037;32;33754;-54
2022/10/03 12:15:53;;;;;;;2.95;1.08;;;;;;;15.95;57.71;100715.72;5567608;32;33382;-54
2022/10/03 12:19:14;;;;;;;12.57;3.62;;;;;;;15.93;59.87;100723.38;5566004;32;35271;-54
2022/10/03 12:22:28;;;;;;;5.70;1.45;;;;;;;16.02;59.08;100709.88;5566033;32;33701;-54
2022/10/03 12:25:35;;;;;;;1.45;1.17;;;;;;;15.92;59.35;100727.16;5568489;32;33867;-54
2022/10/03 12:28:44;;;;;;;2.50;1.20;;;;;;;16.01;57.67;100727.22;5569967;32;33625;-54
2022/10/03 12:32:00;;;;;;;10.95;1.40;;;;;;;16.10;57.81;100733.50;5570281;32;34428;-54
2022/10/03 12:35:21;;;;;;;4.65;1.37;;;;;;;15.90;56.57;100737.50;5566549;32;33896;-54
2022/10/03 12:38:46;;;;;;;4.97;1.45;;;;;;;15.94;56.00;100733.06;5567677;32;34260;-54
2022/10/03 12:42:09;;;;;;;4.50;1.20;;;;;;;16.25;56.40;100736.91;5566934;32;34427;-54
2022/10/03 12:45:11;;;;;;;5.82;1.65;;;;;;;16.44;55.06;100726.69;5567351;32;33669;-54
2022/10/03 12:48:46;;;;;;;4.40;1.30;;;;;;;16.45;54.71;100722.84;5569689;32;33695;-55
2022/10/03 12:51:59;;;;;;;26.70;1.90;;;;;;;16.44;54.51;100737.50;5566053;32;33644;-55
2022/10/03 12:55:18;;;;;;;5.65;1.50;;;;;;;16.35;53.92;100731.25;5566879;32;34233;-54
2022/10/03 12:58:41;;;;;;;2.35;1.25;;;;;;;16.35;54.59;100723.12;5569840;32;34436;-54
2022/10/03 13:01:56;;;;;;;3.65;1.20;;;;;;;16.45;54.06;100717.44;5568135;32;34407;-54
2022/10/03 13:05:18;;;;;;;;;;;;;;;16.58;53.01;100702.22;5559899;32;33752;-54
2022/10/03 13:08:35;;;;;;;8.32;1.35;;;;;;;16.50;53.55;100713.81;5568208;32;33994;-54
2022/10/03 13:12:09;;;;;;;1.45;1.25;;;;;;;16.38;53.86;100730.62;5569836;32;33849;-54
2022/10/03 13:15:43;;;;;;;3.70;1.50;;;;;;;16.20;61.44;100773.03;5564508;32;33636;-55
2022/10/03 13:19:20;;;;;;;2.97;1.70;;;;;;;15.49;68.78;100757.28;5570193;32;33731;-54
2022/10/03 13:22:38;;;;;;;5.07;1.40;;;;;;;14.92;70.19;100748.75;5560414;32;33680;-54
2022/10/03 13:25:48;;;;;;;4.87;1.65;;;;;;;14.97;70.90;100745.97;5569322;32;33805;-54
2022/10/03 13:28:59;;;;;;;3.83;1.60;;;;;;;14.88;69.93;100741.56;5566530;32;33705;-54
2022/10/03 13:32:17;;;;;;;3.75;1.80;;;;;;;14.94;71.85;100740.38;5562588;32;33599;-54
2022/10/03 13:39:24;;;;;;;4.40;2.12;;;;;;;15.26;70.70;100732.16;5555440;32;33680;-55
2022/10/03 13:42:28;;;;;;;3.45;1.80;;;;;;;15.36;69.91;100728.41;5569632;32;33620;-54
2022/10/03 13:45:32;;;;;;;2.58;1.30;;;;;;;15.47;70.54;100720.91;5568902;32;33719;-54
2022/10/03 13:48:35;;;;;;;4.78;1.55;;;;;;;15.61;68.67;100724.34;5568809;32;34420;-54
2022/10/03 13:52:06;;;;;;;3.00;1.23;;;;;;;15.72;67.44;100706.03;5568924;32;33685;-53
2022/10/03 13:55:17;;;;;;;3.92;1.62;;;;;;;15.70;64.60;100717.16;5562163;31;33728;-54
2022/10/03 13:58:42;;;;;;;5.30;1.60;;;;;;;15.66;64.69;100705.34;5569600;32;33756;-54
2022/10/03 14:01:47;;;;;;;18.08;1.67;;;;;;;15.63;64.93;100708.63;5568689;32;33766;-54
2022/10/03 14:05:16;;;;;;;3.67;1.37;;;;;;;15.56;66.53;100697.44;5566067;32;33483;-55
2022/10/03 14:08:30;;;;;;;2.37;1.25;;;;;;;15.60;65.81;100690.34;5537217;32;33637;-55
2022/10/03 14:11:51;;;;;;;6.32;1.65;;;;;;;15.53;66.77;100692.66;5554342;32;33658;-54
2022/10/03 14:15:14;;;;;;;2.50;1.20;;;;;;;15.55;63.80;100687.72;5568761;32;33654;-54
2022/10/03 14:18:19;;;;;;;3.87;1.30;;;;;;;15.64;64.20;100693.22;5567635;32;33693;-53
2022/10/03 14:22:05;;;;;;;2.03;1.40;;;;;;;15.71;65.10;100697.13;5567897;32;33782;-54
2022/10/03 14:25:19;;;;;;;3.47;1.37;;;;;;;15.84;64.77;100706.28;5568259;32;33668;-54
2022/10/03 14:28:35;;;;;;;3.37;1.52;;;;;;;15.78;64.17;100702.09;5568882;32;33698;-54
2022/10/03 14:31:53;;;;;;;5.70;1.50;;;;;;;15.63;63.52;100700.53;5567202;32;34362;-55
2022/10/03 14:35:07;;;;;;;3.72;1.20;;;;;;;15.60;63.84;100706.53;5567805;32;33765;-55
2022/10/03 14:38:15;;;;;;;5.65;1.33;;;;;;;15.73;64.89;100697.63;5568446;32;34394;-54
2022/10/03 14:41:31;;;;;;;4.15;1.52;;;;;;;15.64;62.29;100698.63;5565002;32;33734;-54
2022/10/03 14:44:47;;;;;;;1.40;1.10;;;;;;;15.71;61.83;100696.31;5565643;32;34393;-54
2022/10/03 14:47:54;;;;;;;2.72;1.10;;;;;;;15.68;61.46;100697.72;5563252;32;33653;-54
2022/10/03 14:51:09;;;;;;;2.25;1.20;;;;;;;15.65;63.74;100690.19;5568901;32;33843;-54
2022/10/03 14:54:21;;;;;;;5.20;1.20;;;;;;;15.71;62.15;100699.81;5569351;32;34341;-54
2022/10/03 14:57:31;;;;;;;6.18;1.20;;;;;;;15.70;62.25;100705.53;5567503;32;33696;-54
2022/10/03 15:00:54;;;;;;;1.98;1.20;;;;;;;15.69;60.60;100703.94;5568731;32;33386;-54
2022/10/03 15:04:02;;;;;;;1.37;1.10;;;;;;;15.65;57.75;100706.41;5569102;32;33799;-54
2022/10/03 15:07:06;;;;;;;2.15;1.20;;;;;;;15.64;57.79;100709.44;5567842;32;34378;-54
2022/10/03 15:10:14;;;;;;;3.10;1.37;;;;;;;15.69;56.95;100710.16;5565736;32;33656;-53
2022/10/03 15:13:19;;;;;;;2.60;1.20;;;;;;;15.72;59.82;100714.91;5558700;32;33755;-54
2022/10/03 15:16:23;;;;;;;3.22;1.20;;;;;;;15.66;57.21;100718.00;5568450;32;33756;-54
2022/10/03 15:20:04;;;;;;;1.45;1.10;;;;;;;15.70;59.07;100719.06;5568402;32;34300;-54
2022/10/03 15:23:32;;;;;;;3.58;1.60;;;;;;;15.61;57.79;100726.25;5526927;32;33698;-54
2022/10/03 15:26:36;;;;;;;2.55;1.20;;;;;;;15.71;57.94;100715.25;5564669;32;33726;-54
2022/10/03 15:29:39;;;;;;;6.35;1.30;;;;;;;15.72;59.44;100723.03;5569192;32;33693;-54
